Time;durP1;ratioP1;P1;durP2;ratioP2;P2;SDS_P1;SDS_P2;PMS_P1;PMS_P2;Temp;Humidity;BMP_temperature;BMP_pressure;BME280_temperature;BME280_humidity;BME280_pressure;Samples;Min_cycle;Max_cycle;Signal;HPM_P1;HPM_P2
2021/01/11 00:00:10;;;;;;;40.60;18.48;;;;;;;1.67;97.50;101351.44;5096227;28;20294;-59
2021/01/11 00:02:38;;;;;;;26.07;10.57;;;;;;;1.73;97.25;101354.50;5098247;28;20591;-59
2021/01/11 00:05:06;;;;;;;33.95;11.82;;;;;;;1.69;97.29;101355.91;5095972;28;20463;-59
2021/01/11 00:07:32;;;;;;;27.65;12.23;;;;;;;1.69;97.50;101355.03;5097874;28;20291;-58
2021/01/11 00:09:59;;;;;;;32.67;13.90;;;;;;;1.73;97.46;101342.69;5095978;28;20236;-59
2021/01/11 00:12:26;;;;;;;34.72;15.50;;;;;;;1.74;97.34;101343.56;5097778;28;20287;-59
2021/01/11 00:14:53;;;;;;;33.53;15.30;;;;;;;1.75;97.17;101341.16;5095624;28;20326;-59
2021/01/11 00:17:19;;;;;;;36.30;17.40;;;;;;;1.73;97.30;101337.63;5098100;28;20550;-59
2021/01/11 00:19:47;;;;;;;29.23;13.37;;;;;;;1.73;97.14;101340.16;5096152;28;21148;-59
2021/01/11 00:22:13;;;;;;;29.93;13.13;;;;;;;1.73;97.37;101341.78;5097630;28;20478;-59
2021/01/11 00:24:40;;;;;;;38.33;16.63;;;;;;;1.78;97.32;101340.53;5094782;28;20833;-59
2021/01/11 00:27:06;;;;;;;45.13;17.25;;;;;;;1.77;97.21;101337.88;5097780;28;20220;-57
2021/01/11 00:29:33;;;;;;;37.38;16.80;;;;;;;1.80;97.15;101333.94;5095917;28;20617;-59
2021/01/11 00:32:00;;;;;;;40.95;15.63;;;;;;;1.79;97.27;101332.16;5097597;28;20196;-59
2021/01/11 00:34:27;;;;;;;44.57;20.03;;;;;;;1.83;96.87;101333.31;5080994;28;20694;-59
2021/01/11 00:36:58;;;;;;;51.33;23.57;;;;;;;1.77;96.87;101333.69;5075657;28;20518;-57
2021/01/11 00:39:26;;;;;;;58.15;25.85;;;;;;;1.81;97.10;101329.75;5074291;28;20483;-58
2021/01/11 00:41:57;;;;;;;49.03;22.73;;;;;;;1.77;97.01;101332.78;5075688;28;20224;-58
2021/01/11 00:44:24;;;;;;;58.83;24.07;;;;;;;1.74;97.26;101336.84;5074005;28;20319;-58
2021/01/11 00:46:51;;;;;;;29.30;11.55;;;;;;;1.74;97.10;101341.94;5076029;28;20560;-59
2021/01/11 00:49:18;;;;;;;47.60;18.10;;;;;;;1.78;97.20;101334.59;5074145;28;20256;-58
2021/01/11 00:51:46;;;;;;;58.80;25.23;;;;;;;1.78;97.11;101337.13;5075943;28;20545;-59
2021/01/11 00:54:13;;;;;;;56.65;23.70;;;;;;;1.81;97.01;101334.84;5093699;28;20314;-59
2021/01/11 00:56:40;;;;;;;29.70;13.50;;;;;;;1.79;97.00;101326.19;5096074;28;20262;-60
2021/01/11 00:59:06;;;;;;;41.27;19.23;;;;;;;1.72;97.23;101325.66;5094519;28;20484;-59
2021/01/11 01:01:33;;;;;;;44.43;19.47;;;;;;;1.72;97.63;101329.84;5095855;28;20548;-58
2021/01/11 01:04:00;;;;;;;51.53;23.73;;;;;;;1.69;97.45;101324.50;5094281;28;20474;-59
2021/01/11 01:06:27;;;;;;;27.53;12.87;;;;;;;1.73;97.28;101309.63;5096086;28;20474;-59
2021/01/11 01:08:54;;;;;;;25.17;10.60;;;;;;;1.68;97.33;101318.50;5094379;28;20456;-58
2021/01/11 01:11:21;;;;;;;53.10;23.27;;;;;;;1.75;97.43;101315.72;5096010;28;20505;-59
2021/01/11 01:13:48;;;;;;;30.60;13.10;;;;;;;1.71;97.24;101312.78;5094463;28;20645;-59
2021/01/11 01:16:15;;;;;;;35.73;16.00;;;;;;;1.68;97.51;101313.41;5095530;28;20958;-59
2021/01/11 01:18:41;;;;;;;43.47;16.03;;;;;;;1.71;97.38;101317.88;5094473;28;20444;-58
2021/01/11 01:21:08;;;;;;;46.97;18.20;;;;;;;1.71;97.38;101313.69;5095926;28;20548;-58
2021/01/11 01:23:35;;;;;;;33.13;13.23;;;;;;;1.68;97.52;101317.59;5094101;28;20602;-59
2021/01/11 01:26:03;;;;;;;47.30;18.05;;;;;;;1.74;97.65;101310.50;5095501;28;20449;-59
2021/01/11 01:28:30;;;;;;;38.33;13.85;;;;;;;1.70;97.45;101311.88;5094108;28;20672;-59
2021/01/11 01:30:57;;;;;;;32.00;13.63;;;;;;;1.71;97.30;101312.78;5096142;28;20192;-58
2021/01/11 01:33:23;;;;;;;53.90;21.47;;;;;;;1.73;97.18;101317.25;5093511;28;20465;-59
2021/01/11 01:35:50;;;;;;;57.40;22.23;;;;;;;1.69;97.54;101315.19;5094692;28;20571;-59
2021/01/11 01:38:16;;;;;;;28.77;11.98;;;;;;;1.73;97.38;101317.25;5093894;28;20200;-59
2021/01/11 01:40:46;;;;;;;52.00;21.20;;;;;;;1.71;97.33;101322.97;5095788;28;20231;-58
2021/01/11 01:43:12;;;;;;;31.08;13.23;;;;;;;1.77;97.18;101317.50;5094517;28;20596;-60
2021/01/11 01:45:40;;;;;;;39.17;16.30;;;;;;;1.70;97.17;101314.44;5095514;28;20238;-58
2021/01/11 01:48:07;;;;;;;29.63;11.70;;;;;;;1.68;97.22;101310.88;5094086;28;20436;-60
2021/01/11 01:50:35;;;;;;;42.67;15.13;;;;;;;1.72;97.38;101318.03;5095449;28;20319;-59
2021/01/11 01:53:02;;;;;;;29.73;14.07;;;;;;;1.73;97.28;101318.91;5095323;28;20693;-59
2021/01/11 01:55:29;;;;;;;27.87;11.87;;;;;;;1.73;97.34;101317.25;5093453;28;20253;-58
2021/01/11 01:57:56;;;;;;;57.95;24.77;;;;;;;1.73;97.17;101316.34;5095640;28;20684;-59
2021/01/11 02:00:23;;;;;;;45.63;16.87;;;;;;;1.71;97.23;101321.34;5059627;28;20267;-59
2021/01/11 02:02:51;;;;;;;26.73;8.93;;;;;;;1.74;97.34;101321.56;5086587;28;20478;-58
2021/01/11 02:05:17;;;;;;;39.83;14.20;;;;;;;1.71;97.07;101317.88;5073525;28;20483;-59
2021/01/11 02:07:48;;;;;;;46.97;19.83;;;;;;;1.72;96.99;101314.56;5075564;28;20451;-58
2021/01/11 02:10:25;;;;;;;30.23;14.30;;;;;;;1.74;97.19;101313.94;5073677;28;20551;-59
2021/01/11 02:13:09;;;;;;;50.13;20.03;;;;;;;1.74;97.05;101311.41;5075507;28;20236;-59
2021/01/11 02:15:41;;;;;;;33.33;13.77;;;;;;;1.78;96.92;101304.91;5074414;28;20683;-59
2021/01/11 02:18:12;;;;;;;37.10;16.40;;;;;;;1.71;96.97;101303.53;5073960;28;20291;-59
2021/01/11 02:21:04;;;;;;;35.78;14.30;;;;;;;1.82;97.18;101295.91;5075029;28;20496;-59
2021/01/11 02:24:03;;;;;;;34.97;13.13;;;;;;;1.81;96.86;101291.56;5074014;28;20233;-59
2021/01/11 02:26:42;;;;;;;28.20;12.00;;;;;;;1.78;97.03;101298.97;5085816;28;20565;-59
2021/01/11 02:29:15;;;;;;;29.20;11.20;;;;;;;1.76;97.07;101278.47;5094491;28;20556;-58
2021/01/11 02:31:44;;;;;;;28.58;11.15;;;;;;;1.75;97.23;101289.41;5096077;28;20485;-58
2021/01/11 02:34:12;;;;;;;24.90;7.80;;;;;;;1.78;97.17;101288.78;5093968;28;20285;-59
2021/01/11 02:36:39;;;;;;;55.28;21.38;;;;;;;1.79;96.87;101285.47;5095796;28;20947;-58
2021/01/11 02:39:06;;;;;;;49.38;17.38;;;;;;;1.84;97.26;101284.22;5094372;28;20259;-56
2021/01/11 02:41:33;;;;;;;49.15;19.35;;;;;;;1.83;97.28;101280.78;5095845;28;20220;-57
2021/01/11 02:43:59;;;;;;;34.58;13.45;;;;;;;1.81;97.23;101273.75;5093925;28;20240;-59
2021/01/11 02:46:26;;;;;;;42.83;16.08;;;;;;;1.82;97.29;101276.44;5095531;28;20224;-58
2021/01/11 02:48:56;;;;;;;31.07;11.37;;;;;;;1.83;97.30;101277.31;5097172;28;20236;-58
2021/01/11 02:51:27;;;;;;;29.20;11.23;;;;;;;1.85;97.27;101276.69;5099813;28;20456;-58
2021/01/11 02:54:01;;;;;;;46.00;17.40;;;;;;;1.87;97.26;101271.75;5098040;28;20242;-59
2021/01/11 02:56:33;;;;;;;43.03;14.95;;;;;;;1.92;97.30;101267.94;5098856;28;20315;-59
2021/01/11 02:59:08;;;;;;;24.73;10.30;;;;;;;1.86;97.21;101263.19;5094421;28;20232;-58
2021/01/11 03:01:38;;;;;;;43.63;17.00;;;;;;;1.88;97.29;101260.78;5099268;28;20513;-58
2021/01/11 03:04:07;;;;;;;37.53;12.82;;;;;;;1.88;97.38;101258.25;5091917;28;20477;-59
2021/01/11 03:06:33;;;;;;;44.00;15.67;;;;;;;1.87;97.46;101259.00;5099270;28;20257;-59
2021/01/11 03:09:07;;;;;;;38.63;14.82;;;;;;;1.88;97.40;101254.06;5097734;28;20487;-59
2021/01/11 03:11:35;;;;;;;50.10;21.33;;;;;;;1.92;97.50;101251.75;5099548;28;20202;-59
2021/01/11 03:14:02;;;;;;;26.95;10.93;;;;;;;1.85;97.30;101247.81;5097544;28;20228;-58
2021/01/11 03:16:28;;;;;;;31.67;14.20;;;;;;;1.87;97.40;101248.84;5098894;28;20676;-56
2021/01/11 03:18:55;;;;;;;57.33;23.70;;;;;;;1.85;97.52;101246.16;5097569;28;20480;-58
2021/01/11 03:21:23;;;;;;;41.72;16.42;;;;;;;1.89;97.41;101260.94;5099080;28;20853;-58
2021/01/11 03:23:49;;;;;;;42.93;17.47;;;;;;;1.92;97.31;101242.47;5097542;28;20235;-58
2021/01/11 03:26:23;;;;;;;53.20;19.60;;;;;;;1.87;97.42;101244.66;5098048;28;20953;-59
2021/01/11 03:28:50;;;;;;;65.10;23.97;;;;;;;1.85;97.61;101240.19;5097492;28;20474;-57
2021/01/11 03:31:16;;;;;;;56.00;18.85;;;;;;;1.86;97.56;101241.97;5098927;28;20450;-58
2021/01/11 03:33:43;;;;;;;79.00;28.40;;;;;;;1.87;97.73;101236.09;5097268;28;20235;-58
2021/01/11 03:36:10;;;;;;;63.43;22.90;;;;;;;1.86;97.87;101221.59;5098569;28;20470;-58
2021/01/11 03:38:38;;;;;;;99.63;33.35;;;;;;;1.80;97.73;101221.09;5097251;28;20477;-58
2021/01/11 03:41:05;;;;;;;87.77;29.50;;;;;;;1.81;97.93;101218.69;5098783;28;20203;-58
2021/01/11 03:43:32;;;;;;;82.00;28.80;;;;;;;1.83;98.07;101217.16;5097076;28;20444;-58
2021/01/11 03:45:58;;;;;;;113.30;37.50;;;;;;;1.84;98.01;101218.06;5097841;28;20754;-57
2021/01/11 03:48:25;;;;;;;97.57;31.23;;;;;;;1.84;97.94;101212.97;5096811;28;20450;-56
2021/01/11 03:50:51;;;;;;;97.20;31.48;;;;;;;1.83;98.13;101217.16;5098460;28;20472;-57
2021/01/11 03:53:18;;;;;;;31.00;14.82;;;;;;;1.77;98.14;101211.53;5097161;28;20231;-59
2021/01/11 03:55:46;;;;;;;45.53;16.67;;;;;;;1.80;97.99;101200.72;5097908;28;20630;-57
2021/01/11 03:58:12;;;;;;;65.87;25.07;;;;;;;1.77;98.25;101205.53;5096715;28;20505;-58
2021/01/11 04:00:39;;;;;;;81.30;27.73;;;;;;;1.75;98.21;101197.81;5098066;28;20876;-57
2021/01/11 04:03:10;;;;;;;38.35;12.48;;;;;;;1.77;98.08;101192.81;5098131;28;20315;-58
2021/01/11 04:05:43;;;;;;;87.63;29.57;;;;;;;1.72;97.71;101190.81;5097567;28;20228;-57
2021/01/11 04:08:09;;;;;;;63.03;20.63;;;;;;;1.77;97.78;101188.63;5096659;28;20503;-58
2021/01/11 04:10:36;;;;;;;61.83;19.55;;;;;;;1.74;97.69;101186.72;5097840;28;20456;-59
2021/01/11 04:13:03;;;;;;;78.68;29.88;;;;;;;1.73;97.88;101195.13;5098116;28;20196;-59
2021/01/11 04:15:30;;;;;;;35.42;14.95;;;;;;;1.75;97.61;101182.53;5095654;28;20259;-57
2021/01/11 04:17:57;;;;;;;45.97;18.15;;;;;;;1.74;97.73;101189.28;5098165;28;20200;-59
2021/01/11 04:20:24;;;;;;;48.07;18.10;;;;;;;1.74;97.52;101185.81;5092798;28;20545;-58
2021/01/11 04:22:50;;;;;;;77.95;27.42;;;;;;;1.73;97.76;101179.84;5097937;28;20482;-57
2021/01/11 04:25:17;;;;;;;32.92;13.70;;;;;;;1.73;97.55;101179.84;5095865;28;20256;-59
2021/01/11 04:27:44;;;;;;;59.90;22.17;;;;;;;1.70;97.73;101183.81;5097979;28;20191;-57
2021/01/11 04:30:13;;;;;;;58.67;22.88;;;;;;;1.68;97.70;101170.94;5096130;28;20335;-58
2021/01/11 04:32:39;;;;;;;43.50;16.13;;;;;;;1.73;97.56;101167.13;5097562;28;20291;-57
2021/01/11 04:35:08;;;;;;;61.60;22.83;;;;;;;1.70;97.57;101176.16;5095668;28;20286;-58
2021/01/11 04:37:35;;;;;;;49.70;21.30;;;;;;;1.67;97.54;101166.63;5097828;28;20450;-57
2021/01/11 04:40:01;;;;;;;44.07;17.67;;;;;;;1.71;97.61;101150.88;5095924;28;20319;-58
2021/01/11 04:42:29;;;;;;;37.03;12.25;;;;;;;1.68;97.34;101155.69;5097192;28;20935;-58
2021/01/11 04:44:56;;;;;;;32.10;11.80;;;;;;;1.70;97.49;101151.59;5095484;28;20236;-58
2021/01/11 04:47:24;;;;;;;62.85;23.45;;;;;;;1.68;97.38;101154.78;5097243;28;20234;-58
2021/01/11 04:49:52;;;;;;;74.80;26.40;;;;;;;1.69;97.73;101151.50;5095958;28;20238;-59
2021/01/11 04:52:19;;;;;;;63.97;24.53;;;;;;;1.66;97.79;101146.13;5097280;28;20246;-58
2021/01/11 04:54:49;;;;;;;35.53;16.17;;;;;;;1.72;97.59;101141.56;5095312;28;20490;-58
2021/01/11 04:57:16;;;;;;;58.17;21.23;;;;;;;1.66;97.47;101135.94;5097219;28;20557;-57
2021/01/11 04:59:48;;;;;;;60.43;21.77;;;;;;;1.70;97.48;101138.88;5095617;28;20240;-58
2021/01/11 05:02:20;;;;;;;66.75;24.38;;;;;;;1.71;97.42;101135.59;5097075;28;20574;-59
2021/01/11 05:04:47;;;;;;;75.70;28.85;;;;;;;1.69;97.18;101141.31;5095216;28;20239;-58
2021/01/11 05:07:16;;;;;;;72.95;24.63;;;;;;;1.68;97.36;101130.22;5096929;28;20212;-58
2021/01/11 05:09:44;;;;;;;82.97;30.25;;;;;;;1.62;97.60;101119.53;5090685;28;20259;-58
2021/01/11 05:12:12;;;;;;;80.45;27.90;;;;;;;1.71;97.55;101117.78;5097083;28;20200;-57
2021/01/11 05:14:40;;;;;;;32.10;13.10;;;;;;;1.68;97.24;101119.16;5095015;28;20232;-58
2021/01/11 05:17:07;;;;;;;31.48;11.80;;;;;;;1.71;97.27;101115.25;5096748;28;20713;-59
2021/01/11 05:19:34;;;;;;;45.28;14.57;;;;;;;1.63;97.22;101106.06;5095219;28;20239;-57
2021/01/11 05:22:02;;;;;;;47.33;17.92;;;;;;;1.72;97.17;101121.19;5096670;28;20599;-58
2021/01/11 05:24:32;;;;;;;50.65;18.95;;;;;;;1.74;97.30;101112.03;5093928;28;20240;-59
2021/01/11 05:27:00;;;;;;;83.57;30.65;;;;;;;1.73;97.58;101112.81;5096140;28;20223;-59
2021/01/11 05:29:27;;;;;;;70.97;26.00;;;;;;;1.67;97.25;101113.19;5094970;28;20702;-58
2021/01/11 05:31:55;;;;;;;36.80;14.80;;;;;;;1.65;97.13;101109.66;5096641;28;20203;-58
2021/01/11 05:34:23;;;;;;;85.00;28.70;;;;;;;1.70;97.40;101102.38;5094729;28;20546;-58
2021/01/11 05:36:50;;;;;;;76.65;32.33;;;;;;;1.69;97.14;101101.47;5096476;28;20302;-58
2021/01/11 05:39:24;;;;;;;40.70;16.90;;;;;;;1.68;97.25;101103.88;5095236;28;20270;-57
2021/01/11 05:41:51;;;;;;;64.73;22.53;;;;;;;1.66;97.28;101106.31;5096699;28;20505;-58
2021/01/11 05:44:18;;;;;;;38.63;14.48;;;;;;;1.67;97.24;101107.19;5094619;28;20481;-58
2021/01/11 05:46:46;;;;;;;56.25;18.05;;;;;;;1.65;97.17;101106.19;5096042;28;20224;-58
2021/01/11 05:49:14;;;;;;;45.00;18.25;;;;;;;1.60;97.13;101103.28;5094776;28;20239;-57
2021/01/11 05:51:41;;;;;;;47.13;16.77;;;;;;;1.62;97.18;101106.81;5096639;28;20196;-58
2021/01/11 05:54:25;;;;;;;79.03;27.80;;;;;;;1.58;97.41;101109.88;5094596;28;20537;-58
2021/01/11 05:56:53;;;;;;;26.65;10.35;;;;;;;1.66;97.37;101098.69;5096177;28;20327;-57
2021/01/11 05:59:19;;;;;;;45.90;17.07;;;;;;;1.62;97.42;101091.56;5094776;28;20235;-58
2021/01/11 06:01:46;;;;;;;59.37;20.00;;;;;;;1.58;97.49;101087.88;5096040;28;20486;-58
2021/01/11 06:04:13;;;;;;;72.60;25.37;;;;;;;1.60;97.50;101085.47;5094403;28;20486;-57
2021/01/11 06:06:40;;;;;;;35.42;12.60;;;;;;;1.63;97.35;101084.84;5096204;28;20457;-57
2021/01/11 06:09:07;;;;;;;40.55;14.93;;;;;;;1.57;97.17;101085.19;5094767;28;20641;-57
2021/01/11 06:11:36;;;;;;;54.97;22.70;;;;;;;1.55;97.22;101081.66;5096257;28;20200;-58
2021/01/11 06:14:05;;;;;;;29.27;12.50;;;;;;;1.59;97.25;101086.22;5094154;28;20293;-58
2021/01/11 06:16:32;;;;;;;36.60;14.55;;;;;;;1.50;97.26;101088.00;5096137;28;20519;-58
2021/01/11 06:19:00;;;;;;;53.63;19.30;;;;;;;1.52;97.49;101078.81;5094590;28;20285;-57
2021/01/11 06:21:27;;;;;;;62.73;24.60;;;;;;;1.46;97.35;101081.75;5096096;28;20231;-54
2021/01/11 06:24:18;;;;;;;28.17;13.23;;;;;;;1.50;97.36;101075.28;5098205;28;20553;-58
2021/01/11 06:26:46;;;;;;;59.92;20.05;;;;;;;1.53;97.30;101076.41;5084713;28;20227;-56
2021/01/11 06:29:30;;;;;;;46.53;18.08;;;;;;;1.51;97.45;101072.88;5098647;28;20343;-56
2021/01/11 06:31:58;;;;;;;37.35;14.23;;;;;;;1.47;97.13;101069.19;5099962;28;20288;-57
2021/01/11 06:34:35;;;;;;;23.75;9.60;;;;;;;1.43;97.24;101067.13;5098060;28;20242;-55
2021/01/11 06:37:02;;;;;;;22.48;8.65;;;;;;;1.39;97.10;101075.25;5099828;28;20307;-57
2021/01/11 06:39:32;;;;;;;24.70;9.75;;;;;;;1.36;97.13;101075.00;5098383;28;20289;-55
2021/01/11 06:42:10;;;;;;;35.05;13.68;;;;;;;1.36;97.44;101069.94;5099263;28;20629;-53
2021/01/11 06:44:39;;;;;;;53.08;21.50;;;;;;;1.41;97.66;101072.84;5097692;28;20236;-56
2021/01/11 06:47:08;;;;;;;30.48;13.60;;;;;;;1.36;97.52;101067.38;5099634;28;20224;-58
2021/01/11 06:49:36;;;;;;;19.13;8.25;;;;;;;1.34;97.65;101072.34;5093345;28;20376;-55
2021/01/11 06:52:09;;;;;;;30.35;12.23;;;;;;;1.29;97.24;101077.81;5099870;28;20197;-54
2021/01/11 06:54:41;;;;;;;18.65;7.88;;;;;;;1.28;97.54;101070.94;5097414;28;20244;-55
2021/01/11 06:57:11;;;;;;;18.00;7.35;;;;;;;1.19;97.50;101073.59;5099724;28;20232;-54
2021/01/11 06:59:38;;;;;;;23.08;10.98;;;;;;;1.18;97.29;101061.66;5098014;28;20327;-58
2021/01/11 07:02:19;;;;;;;21.38;8.93;;;;;;;1.17;97.05;101064.94;5099270;28;20566;-55
2021/01/11 07:04:46;;;;;;;17.17;6.85;;;;;;;1.13;97.36;101071.41;5097515;28;20247;-55
2021/01/11 07:07:24;;;;;;;26.90;7.70;;;;;;;1.11;97.39;101052.59;5099473;28;20216;-54
2021/01/11 07:09:57;;;;;;;16.08;7.82;;;;;;;1.12;97.46;101049.31;5097729;28;20261;-53
2021/01/11 07:12:25;;;;;;;32.00;13.82;;;;;;;1.13;97.45;101055.28;5099339;28;20598;-52
2021/01/11 07:15:03;;;;;;;27.80;10.77;;;;;;;1.03;97.25;101048.53;5097134;28;20967;-56
2021/01/11 07:17:35;;;;;;;27.70;11.27;;;;;;;1.07;97.34;101042.94;5099372;28;20227;-51
2021/01/11 07:20:02;;;;;;;15.70;8.18;;;;;;;1.00;97.16;101058.44;5097159;28;20646;-56
2021/01/11 07:22:29;;;;;;;18.05;8.00;;;;;;;0.97;97.20;101053.09;5099076;28;20302;-56
2021/01/11 07:24:55;;;;;;;17.10;8.05;;;;;;;0.98;97.21;101049.78;5096890;28;20483;-55
2021/01/11 07:27:22;;;;;;;37.20;14.73;;;;;;;0.99;97.08;101051.56;5098955;28;20196;-54
2021/01/11 07:29:49;;;;;;;11.32;4.53;;;;;;;0.89;96.98;101055.88;5097549;28;20243;-54
2021/01/11 07:32:16;;;;;;;13.80;7.07;;;;;;;0.92;97.18;101055.25;5098881;28;20224;-56
2021/01/11 07:34:43;;;;;;;35.85;14.88;;;;;;;0.91;97.09;101049.28;5096177;28;20353;-55
2021/01/11 07:37:13;;;;;;;32.30;12.85;;;;;;;0.93;97.39;101051.94;5098999;28;20306;-56
2021/01/11 07:39:40;;;;;;;14.63;6.20;;;;;;;0.96;97.34;101056.41;5096775;28;20319;-57
2021/01/11 07:42:07;;;;;;;30.90;13.82;;;;;;;0.91;97.20;101043.28;5098847;28;20227;-58
2021/01/11 07:44:35;;;;;;;23.00;6.72;;;;;;;0.87;97.23;101044.69;5096739;28;20268;-53
2021/01/11 07:47:04;;;;;;;12.85;5.35;;;;;;;0.91;97.04;101049.28;5098788;28;20299;-58
2021/01/11 07:49:33;;;;;;;29.45;13.30;;;;;;;0.90;97.27;101037.31;5096991;28;20240;-55
2021/01/11 07:52:04;;;;;;;18.98;7.20;;;;;;;0.91;97.51;101040.75;5098024;28;20295;-57
2021/01/11 07:54:31;;;;;;;19.65;9.70;;;;;;;0.84;97.34;101036.81;5096666;28;20235;-53
2021/01/11 07:56:58;;;;;;;26.33;11.23;;;;;;;0.85;97.69;101033.50;5098502;28;20239;-56
2021/01/11 07:59:25;;;;;;;22.25;10.63;;;;;;;0.83;97.44;101039.22;5096838;28;20283;-56
2021/01/11 08:01:52;;;;;;;14.70;5.65;;;;;;;0.81;97.39;101018.75;5098373;28;20215;-54
2021/01/11 08:04:20;;;;;;;37.20;14.90;;;;;;;0.83;97.44;101019.78;5096400;28;20236;-55
2021/01/11 08:06:53;;;;;;;18.60;6.88;;;;;;;0.79;97.51;101015.19;5097850;28;20737;-53
2021/01/11 08:09:22;;;;;;;24.52;9.48;;;;;;;0.80;97.75;101014.44;5096647;28;20646;-55
2021/01/11 08:11:48;;;;;;;24.70;11.43;;;;;;;0.77;97.45;101009.09;5098229;28;20235;-54
2021/01/11 08:14:15;;;;;;;28.70;14.65;;;;;;;0.77;97.44;101015.06;5096474;28;20277;-57
2021/01/11 08:16:44;;;;;;;31.48;13.27;;;;;;;0.74;97.63;101018.97;5097812;28;20223;-58
2021/01/11 08:19:11;;;;;;;15.55;7.32;;;;;;;0.77;97.47;101016.72;5096378;28;20248;-53
2021/01/11 08:21:39;;;;;;;21.92;8.30;;;;;;;0.80;97.48;101009.34;5098033;28;20291;-55
2021/01/11 08:24:07;;;;;;;20.55;10.10;;;;;;;0.75;97.34;101015.69;5095734;28;20322;-54
2021/01/11 08:26:39;;;;;;;20.85;7.20;;;;;;;0.79;97.21;101012.66;5097714;28;20215;-56
2021/01/11 08:29:06;;;;;;;18.25;8.15;;;;;;;0.76;97.48;101014.91;5095925;28;20327;-55
2021/01/11 08:31:33;;;;;;;23.23;10.18;;;;;;;0.78;97.56;101013.41;5097613;28;20236;-53
2021/01/11 08:34:00;;;;;;;19.38;8.35;;;;;;;0.77;97.28;101015.06;5095583;28;20273;-57
2021/01/11 08:36:31;;;;;;;17.10;8.23;;;;;;;0.75;97.32;101014.03;5097612;28;20220;-50
2021/01/11 08:39:10;;;;;;;15.23;5.75;;;;;;;0.76;97.56;101002.22;5095750;28;20228;-54
2021/01/11 08:41:39;;;;;;;25.10;10.90;;;;;;;0.78;97.60;101011.75;5097663;28;20250;-59
2021/01/11 08:44:06;;;;;;;16.92;8.27;;;;;;;0.77;97.44;101004.88;5095505;28;20706;-56
2021/01/11 08:46:59;;;;;;;30.67;13.02;;;;;;;0.85;97.46;101007.19;5096133;28;20299;-57
2021/01/11 08:49:26;;;;;;;22.23;9.57;;;;;;;0.86;97.40;101004.78;5095722;28;20250;-58
2021/01/11 08:51:53;;;;;;;34.65;15.60;;;;;;;0.77;97.17;100994.72;5097447;28;20230;-54
2021/01/11 08:54:31;;;;;;;20.83;10.20;;;;;;;0.83;97.12;101003.63;5095463;28;20540;-55
2021/01/11 08:56:59;;;;;;;33.15;13.75;;;;;;;0.84;97.40;101001.22;5097120;28;20529;-56
2021/01/11 08:59:26;;;;;;;31.77;13.68;;;;;;;0.84;97.48;101000.34;5095589;28;20610;-55
2021/01/11 09:01:53;;;;;;;23.30;10.63;;;;;;;0.80;97.12;101006.81;5097069;28;20499;-55
2021/01/11 09:04:30;;;;;;;20.92;9.65;;;;;;;0.82;97.20;101001.88;5095263;28;20240;-55
2021/01/11 09:07:01;;;;;;;19.05;8.65;;;;;;;0.87;97.27;101016.72;5097053;28;20230;-57
2021/01/11 09:09:30;;;;;;;22.88;8.18;;;;;;;0.94;97.30;101013.94;5095338;28;20246;-53
2021/01/11 09:12:06;;;;;;;38.83;17.90;;;;;;;0.87;97.13;101014.19;5096833;28;20220;-56
2021/01/11 09:14:33;;;;;;;18.33;8.23;;;;;;;0.93;97.29;101011.28;5075297;28;20315;-52
2021/01/11 09:17:02;;;;;;;44.78;20.30;;;;;;;0.89;97.44;101005.06;5076644;28;20602;-56
2021/01/11 09:19:29;;;;;;;31.83;12.05;;;;;;;0.94;97.38;101001.22;5074613;28;20237;-56
2021/01/11 09:21:58;;;;;;;22.35;8.10;;;;;;;0.93;97.46;100999.47;5076725;28;20519;-58
2021/01/11 09:24:25;;;;;;;25.63;9.48;;;;;;;0.90;97.49;100994.13;5074771;28;20319;-55
2021/01/11 09:26:53;;;;;;;25.98;11.45;;;;;;;0.96;97.80;100996.28;5076392;28;20216;-58
2021/01/11 09:29:20;;;;;;;27.08;11.63;;;;;;;1.01;97.54;100999.22;5074770;28;20243;-56
2021/01/11 09:31:48;;;;;;;22.38;8.70;;;;;;;0.93;97.50;101004.53;5076259;28;20208;-49
2021/01/11 09:34:15;;;;;;;38.55;11.25;;;;;;;0.99;97.80;101016.91;5072017;28;20236;-56
2021/01/11 09:36:42;;;;;;;48.85;16.92;;;;;;;1.00;97.68;101005.97;5076367;28;20234;-55
2021/01/11 09:39:10;;;;;;;46.38;17.35;;;;;;;1.02;97.73;101003.56;5084274;28;20315;-57
2021/01/11 09:41:44;;;;;;;23.70;10.57;;;;;;;1.12;98.00;101005.22;5088623;28;20208;-51
2021/01/11 09:44:12;;;;;;;23.88;10.88;;;;;;;1.19;98.11;101010.06;5093904;28;20246;-51
2021/01/11 09:46:43;;;;;;;64.95;24.63;;;;;;;1.12;98.03;100995.91;5095965;28;20227;-59
2021/01/11 09:49:10;;;;;;;42.03;16.05;;;;;;;1.20;98.05;101009.28;5094456;28;20263;-54
2021/01/11 09:51:37;;;;;;;31.73;12.90;;;;;;;1.13;97.81;101007.88;5096277;28;20485;-53
2021/01/11 09:54:05;;;;;;;37.45;13.00;;;;;;;1.05;97.78;100994.53;5094099;28;20223;-58
2021/01/11 09:56:33;;;;;;;26.98;9.68;;;;;;;1.02;97.98;100990.84;5075692;28;20661;-54
2021/01/11 09:59:00;;;;;;;35.70;13.82;;;;;;;1.10;98.12;100996.56;5087621;28;20232;-56
2021/01/11 10:01:36;;;;;;;29.25;12.10;;;;;;;1.12;97.76;100995.06;5095846;28;20215;-57
2021/01/11 10:04:04;;;;;;;39.67;12.00;;;;;;;1.15;97.77;101001.28;5094173;28;20285;-55
2021/01/11 10:06:42;;;;;;;46.53;16.80;;;;;;;1.21;97.68;101003.44;5096068;28;20216;-54
2021/01/11 10:09:14;;;;;;;32.83;13.97;;;;;;;1.12;97.45;100984.88;5094607;28;20477;-49
2021/01/11 10:11:41;;;;;;;40.35;15.45;;;;;;;1.16;97.46;100982.72;5095852;28;20448;-50
2021/01/11 10:14:08;;;;;;;40.40;12.77;;;;;;;1.21;97.43;100985.63;5094259;28;20594;-52
2021/01/11 10:16:42;;;;;;;33.75;11.25;;;;;;;1.22;97.44;100969.63;5095905;28;20258;-55
2021/01/11 10:19:11;;;;;;;100.07;32.15;;;;;;;1.27;97.38;100977.66;5094463;28;20231;-54
2021/01/11 10:21:38;;;;;;;45.50;14.70;;;;;;;1.23;97.20;100966.31;5095958;28;20573;-52
2021/01/11 10:24:05;;;;;;;78.40;27.20;;;;;;;1.19;97.21;100966.84;5093875;28;20379;-55
2021/01/11 10:26:33;;;;;;;36.53;11.77;;;;;;;1.14;97.18;100968.09;5095670;28;20690;-53
2021/01/11 10:29:00;;;;;;;47.95;14.80;;;;;;;1.13;96.95;100964.66;5094613;28;20230;-56
2021/01/11 10:31:27;;;;;;;43.17;15.18;;;;;;;1.14;97.23;100961.38;5095646;28;20265;-55
2021/01/11 10:33:57;;;;;;;33.85;12.20;;;;;;;1.04;97.51;100956.28;5093756;28;20320;-55
2021/01/11 10:36:25;;;;;;;57.60;22.58;;;;;;;1.02;97.17;100942.56;5095962;28;20569;-55
2021/01/11 10:38:52;;;;;;;29.85;10.65;;;;;;;0.99;97.17;100949.91;5094194;28;20242;-57
2021/01/11 10:41:20;;;;;;;28.30;11.30;;;;;;;0.94;97.14;100942.78;5095592;28;20206;-54
2021/01/11 10:43:47;;;;;;;33.78;12.00;;;;;;;0.96;97.12;100944.59;5093804;28;20259;-59
2021/01/11 10:46:15;;;;;;;35.70;11.77;;;;;;;0.92;97.13;100938.38;5095573;28;20500;-55
2021/01/11 10:48:43;;;;;;;42.40;11.95;;;;;;;0.92;97.01;100929.06;5093923;28;20287;-56
2021/01/11 10:51:11;;;;;;;31.58;9.27;;;;;;;0.89;97.16;100923.75;5095662;28;20219;-56
2021/01/11 10:53:39;;;;;;;34.80;10.40;;;;;;;0.93;97.15;100919.81;5093871;28;20242;-57
2021/01/11 10:56:06;;;;;;;48.92;17.45;;;;;;;0.93;97.13;100915.59;5095463;28;20224;-53
2021/01/11 10:58:33;;;;;;;34.22;13.75;;;;;;;0.88;97.25;100921.94;5094033;28;20239;-55
2021/01/11 11:01:01;;;;;;;50.03;13.35;;;;;;;0.94;97.32;100916.50;5095767;28;20204;-56
2021/01/11 11:03:28;;;;;;;32.25;13.43;;;;;;;0.90;97.30;100910.28;5093315;28;20231;-53
2021/01/11 11:05:55;;;;;;;58.40;22.52;;;;;;;0.83;97.26;100914.72;5094812;28;20251;-55
2021/01/11 11:08:21;;;;;;;34.63;12.75;;;;;;;0.82;97.21;100905.31;5094286;28;20559;-56
2021/01/11 11:10:49;;;;;;;62.85;20.33;;;;;;;0.86;97.30;100900.63;5099076;28;20200;-52
2021/01/11 11:13:16;;;;;;;27.58;9.73;;;;;;;0.84;96.94;100909.78;5097633;28;20797;-55
2021/01/11 11:15:46;;;;;;;48.85;16.30;;;;;;;0.83;96.96;100892.75;5098719;28;20323;-55
2021/01/11 11:18:14;;;;;;;28.58;9.18;;;;;;;0.86;97.11;100880.28;5097490;28;20265;-56
2021/01/11 11:20:43;;;;;;;53.72;20.27;;;;;;;0.83;97.11;100877.50;5098996;28;20232;-56
2021/01/11 11:23:10;;;;;;;26.50;9.27;;;;;;;0.87;97.20;100869.34;5097350;28;20220;-55
2021/01/11 11:25:36;;;;;;;26.98;9.57;;;;;;;0.82;97.13;100870.63;5098858;28;20605;-57